sensor_id;sensor_type;location;lat;lon;timestamp;P1;durP1;ratioP1;P2;durP2;ratioP2
2476;SDS011;1249;51.270;6.756;2023-05-28T00:02:17;7.93;;;5.07;;
2476;SDS011;1249;51.270;6.756;2023-05-28T00:04:43;5.57;;;3.90;;
2476;SDS011;1249;51.270;6.756;2023-05-28T00:07:09;5.37;;;4.60;;
2476;SDS011;1249;51.270;6.756;2023-05-28T00:09:36;5.00;;;3.77;;
2476;SDS011;1249;51.270;6.756;2023-05-28T00:12:02;6.97;;;3.43;;
2476;SDS011;1249;51.270;6.756;2023-05-28T00:14:28;4.87;;;4.30;;
2476;SDS011;1249;51.270;6.756;2023-05-28T00:16:54;8.13;;;4.33;;
2476;SDS011;1249;51.270;6.756;2023-05-28T00:19:20;9.93;;;4.50;;
2476;SDS011;1249;51.270;6.756;2023-05-28T00:21:47;5.80;;;4.00;;
2476;SDS011;1249;51.270;6.756;2023-05-28T00:24:12;5.33;;;4.67;;
2476;SDS011;1249;51.270;6.756;2023-05-28T00:26:38;6.00;;;4.77;;
2476;SDS011;1249;51.270;6.756;2023-05-28T00:29:04;7.97;;;4.13;;
2476;SDS011;1249;51.270;6.756;2023-05-28T00:31:29;6.50;;;4.30;;
2476;SDS011;1249;51.270;6.756;2023-05-28T00:33:55;8.17;;;5.00;;
2476;SDS011;1249;51.270;6.756;2023-05-28T00:36:21;6.63;;;4.67;;
2476;SDS011;1249;51.270;6.756;2023-05-28T00:38:47;9.53;;;6.07;;
2476;SDS011;1249;51.270;6.756;2023-05-28T00:41:13;5.00;;;4.50;;
2476;SDS011;1249;51.270;6.756;2023-05-28T00:43:44;5.33;;;4.83;;
2476;SDS011;1249;51.270;6.756;2023-05-28T00:46:09;6.40;;;4.70;;
2476;SDS011;1249;51.270;6.756;2023-05-28T00:48:35;8.90;;;4.50;;
2476;SDS011;1249;51.270;6.756;2023-05-28T00:51:01;7.00;;;4.30;;
2476;SDS011;1249;51.270;6.756;2023-05-28T00:53:27;9.27;;;5.07;;
2476;SDS011;1249;51.270;6.756;2023-05-28T00:55:53;7.13;;;4.87;;
2476;SDS011;1249;51.270;6.756;2023-05-28T00:58:18;6.97;;;4.43;;
2476;SDS011;1249;51.270;6.756;2023-05-28T01:00:44;5.27;;;4.30;;
2476;SDS011;1249;51.270;6.756;2023-05-28T01:03:10;6.63;;;4.73;;
2476;SDS011;1249;51.270;6.756;2023-05-28T01:05:36;7.00;;;5.30;;
2476;SDS011;1249;51.270;6.756;2023-05-28T01:08:02;6.53;;;4.50;;
2476;SDS011;1249;51.270;6.756;2023-05-28T01:10:30;9.57;;;5.67;;
2476;SDS011;1249;51.270;6.756;2023-05-28T01:12:56;7.20;;;5.10;;
2476;SDS011;1249;51.270;6.756;2023-05-28T01:15:25;8.20;;;3.77;;
2476;SDS011;1249;51.270;6.756;2023-05-28T01:18:00;7.57;;;4.80;;
2476;SDS011;1249;51.270;6.756;2023-05-28T01:20:27;6.13;;;4.20;;
2476;SDS011;1249;51.270;6.756;2023-05-28T01:22:54;6.27;;;5.00;;
2476;SDS011;1249;51.270;6.756;2023-05-28T01:25:25;6.23;;;4.40;;
2476;SDS011;1249;51.270;6.756;2023-05-28T01:27:51;6.10;;;5.13;;
2476;SDS011;1249;51.270;6.756;2023-05-28T01:30:17;5.40;;;4.87;;
2476;SDS011;1249;51.270;6.756;2023-05-28T01:32:43;4.80;;;4.27;;
2476;SDS011;1249;51.270;6.756;2023-05-28T01:35:08;7.60;;;6.53;;
2476;SDS011;1249;51.270;6.756;2023-05-28T01:37:43;8.00;;;4.50;;
2476;SDS011;1249;51.270;6.756;2023-05-28T01:40:12;9.40;;;4.50;;
2476;SDS011;1249;51.270;6.756;2023-05-28T01:42:41;5.13;;;4.57;;
2476;SDS011;1249;51.270;6.756;2023-05-28T01:45:09;6.33;;;4.27;;
2476;SDS011;1249;51.270;6.756;2023-05-28T01:47:36;5.40;;;4.37;;
2476;SDS011;1249;51.270;6.756;2023-05-28T01:50:02;8.53;;;4.93;;
2476;SDS011;1249;51.270;6.756;2023-05-28T01:52:28;5.97;;;5.13;;
2476;SDS011;1249;51.270;6.756;2023-05-28T01:54:53;8.07;;;5.40;;
2476;SDS011;1249;51.270;6.756;2023-05-28T01:57:19;7.03;;;5.40;;
2476;SDS011;1249;51.270;6.756;2023-05-28T01:59:44;5.53;;;4.03;;
2476;SDS011;1249;51.270;6.756;2023-05-28T02:02:10;6.50;;;4.90;;
2476;SDS011;1249;51.270;6.756;2023-05-28T02:04:36;5.00;;;4.40;;
2476;SDS011;1249;51.270;6.756;2023-05-28T02:07:01;4.70;;;4.30;;
2476;SDS011;1249;51.270;6.756;2023-05-28T02:09:27;6.00;;;4.83;;
2476;SDS011;1249;51.270;6.756;2023-05-28T02:11:52;6.20;;;5.03;;
2476;SDS011;1249;51.270;6.756;2023-05-28T02:14:18;7.73;;;4.73;;
2476;SDS011;1249;51.270;6.756;2023-05-28T02:16:47;4.83;;;4.40;;
2476;SDS011;1249;51.270;6.756;2023-05-28T02:19:13;6.70;;;5.40;;
2476;SDS011;1249;51.270;6.756;2023-05-28T02:21:39;5.80;;;5.00;;
2476;SDS011;1249;51.270;6.756;2023-05-28T02:24:04;8.67;;;4.77;;
2476;SDS011;1249;51.270;6.756;2023-05-28T02:26:30;8.23;;;5.53;;
2476;SDS011;1249;51.270;6.756;2023-05-28T02:28:56;7.47;;;4.93;;
2476;SDS011;1249;51.270;6.756;2023-05-28T02:31:21;7.23;;;4.73;;
2476;SDS011;1249;51.270;6.756;2023-05-28T02:33:47;8.80;;;5.03;;
2476;SDS011;1249;51.270;6.756;2023-05-28T02:36:12;6.53;;;4.77;;
2476;SDS011;1249;51.270;6.756;2023-05-28T02:38:38;7.77;;;4.90;;
2476;SDS011;1249;51.270;6.756;2023-05-28T02:41:05;6.30;;;4.57;;
2476;SDS011;1249;51.270;6.756;2023-05-28T02:43:30;4.77;;;4.30;;
2476;SDS011;1249;51.270;6.756;2023-05-28T02:45:56;5.50;;;4.67;;
2476;SDS011;1249;51.270;6.756;2023-05-28T02:48:22;7.20;;;4.73;;
2476;SDS011;1249;51.270;6.756;2023-05-28T02:50:47;5.80;;;4.63;;
2476;SDS011;1249;51.270;6.756;2023-05-28T02:53:13;5.73;;;5.17;;
2476;SDS011;1249;51.270;6.756;2023-05-28T02:55:38;4.83;;;4.30;;
2476;SDS011;1249;51.270;6.756;2023-05-28T02:58:04;8.43;;;4.97;;
2476;SDS011;1249;51.270;6.756;2023-05-28T03:00:30;6.00;;;4.40;;
2476;SDS011;1249;51.270;6.756;2023-05-28T03:02:56;9.13;;;4.40;;
2476;SDS011;1249;51.270;6.756;2023-05-28T03:05:22;5.53;;;4.27;;
2476;SDS011;1249;51.270;6.756;2023-05-28T03:07:48;5.17;;;4.00;;
2476;SDS011;1249;51.270;6.756;2023-05-28T03:10:13;5.60;;;4.90;;
2476;SDS011;1249;51.270;6.756;2023-05-28T03:12:39;8.90;;;5.20;;
2476;SDS011;1249;51.270;6.756;2023-05-28T03:15:05;8.57;;;4.40;;
2476;SDS011;1249;51.270;6.756;2023-05-28T03:17:31;5.40;;;4.90;;
2476;SDS011;1249;51.270;6.756;2023-05-28T03:19:57;6.70;;;4.50;;
2476;SDS011;1249;51.270;6.756;2023-05-28T03:22:22;6.53;;;4.93;;
2476;SDS011;1249;51.270;6.756;2023-05-28T03:24:48;5.17;;;4.67;;
2476;SDS011;1249;51.270;6.756;2023-05-28T03:27:14;5.17;;;4.40;;
2476;SDS011;1249;51.270;6.756;2023-05-28T03:29:39;5.03;;;4.20;;
2476;SDS011;1249;51.270;6.756;2023-05-28T03:32:05;9.70;;;5.47;;
2476;SDS011;1249;51.270;6.756;2023-05-28T03:34:30;9.57;;;4.90;;
2476;SDS011;1249;51.270;6.756;2023-05-28T03:36:56;7.30;;;4.70;;
2476;SDS011;1249;51.270;6.756;2023-05-28T03:39:22;4.87;;;4.37;;
2476;SDS011;1249;51.270;6.756;2023-05-28T03:41:47;5.10;;;4.60;;
2476;SDS011;1249;51.270;6.756;2023-05-28T03:44:14;5.83;;;4.63;;
2476;SDS011;1249;51.270;6.756;2023-05-28T03:46:41;6.67;;;4.40;;
2476;SDS011;1249;51.270;6.756;2023-05-28T03:49:07;5.50;;;5.00;;
2476;SDS011;1249;51.270;6.756;2023-05-28T03:51:32;7.80;;;4.67;;
2476;SDS011;1249;51.270;6.756;2023-05-28T03:53:58;6.70;;;4.70;;
2476;SDS011;1249;51.270;6.756;2023-05-28T03:56:24;6.33;;;4.80;;
2476;SDS011;1249;51.270;6.756;2023-05-28T03:58:50;7.23;;;5.43;;
2476;SDS011;1249;51.270;6.756;2023-05-28T04:01:15;7.43;;;5.33;;
2476;SDS011;1249;51.270;6.756;2023-05-28T04:03:41;8.40;;;5.07;;
2476;SDS011;1249;51.270;6.756;2023-05-28T04:06:06;6.83;;;6.00;;
2476;SDS011;1249;51.270;6.756;2023-05-28T04:08:33;6.20;;;5.17;;
2476;SDS011;1249;51.270;6.756;2023-05-28T04:10:58;6.87;;;4.90;;
2476;SDS011;1249;51.270;6.756;2023-05-28T04:13:24;7.17;;;6.50;;
2476;SDS011;1249;51.270;6.756;2023-05-28T04:15:50;5.73;;;5.23;;
2476;SDS011;1249;51.270;6.756;2023-05-28T04:18:15;12.23;;;6.03;;
2476;SDS011;1249;51.270;6.756;2023-05-28T04:20:41;7.43;;;5.87;;
2476;SDS011;1249;51.270;6.756;2023-05-28T04:23:06;6.83;;;6.00;;
2476;SDS011;1249;51.270;6.756;2023-05-28T04:25:32;7.13;;;5.67;;
2476;SDS011;1249;51.270;6.756;2023-05-28T04:27:58;6.97;;;6.27;;
2476;SDS011;1249;51.270;6.756;2023-05-28T04:30:25;8.37;;;6.47;;
2476;SDS011;1249;51.270;6.756;2023-05-28T04:32:51;9.23;;;5.63;;
2476;SDS011;1249;51.270;6.756;2023-05-28T04:35:17;8.37;;;5.93;;
2476;SDS011;1249;51.270;6.756;2023-05-28T04:37:42;6.90;;;6.20;;
2476;SDS011;1249;51.270;6.756;2023-05-28T04:40:09;8.70;;;5.50;;
2476;SDS011;1249;51.270;6.756;2023-05-28T04:42:41;8.73;;;5.47;;
2476;SDS011;1249;51.270;6.756;2023-05-28T04:45:08;8.67;;;5.70;;
2476;SDS011;1249;51.270;6.756;2023-05-28T04:47:34;7.60;;;5.90;;
2476;SDS011;1249;51.270;6.756;2023-05-28T04:50:01;5.90;;;4.80;;
2476;SDS011;1249;51.270;6.756;2023-05-28T04:52:29;8.43;;;5.87;;
2476;SDS011;1249;51.270;6.756;2023-05-28T04:55:00;9.57;;;5.10;;
2476;SDS011;1249;51.270;6.756;2023-05-28T04:57:26;13.73;;;6.70;;
2476;SDS011;1249;51.270;6.756;2023-05-28T04:59:52;10.10;;;6.50;;
2476;SDS011;1249;51.270;6.756;2023-05-28T05:02:18;8.43;;;6.73;;
2476;SDS011;1249;51.270;6.756;2023-05-28T05:04:44;8.40;;;6.10;;
2476;SDS011;1249;51.270;6.756;2023-05-28T05:07:10;10.03;;;6.73;;
2476;SDS011;1249;51.270;6.756;2023-05-28T05:09:36;9.90;;;6.73;;
2476;SDS011;1249;51.270;6.756;2023-05-28T05:12:02;8.10;;;6.20;;
2476;SDS011;1249;51.270;6.756;2023-05-28T05:14:28;7.33;;;6.00;;
2476;SDS011;1249;51.270;6.756;2023-05-28T05:16:53;7.10;;;5.40;;
2476;SDS011;1249;51.270;6.756;2023-05-28T05:19:19;6.80;;;6.10;;
2476;SDS011;1249;51.270;6.756;2023-05-28T05:21:44;9.47;;;6.03;;
2476;SDS011;1249;51.270;6.756;2023-05-28T05:24:10;7.17;;;5.50;;
2476;SDS011;1249;51.270;6.756;2023-05-28T05:26:35;8.53;;;5.67;;
2476;SDS011;1249;51.270;6.756;2023-05-28T05:29:01;10.10;;;6.03;;
2476;SDS011;1249;51.270;6.756;2023-05-28T05:31:26;7.17;;;5.80;;
2476;SDS011;1249;51.270;6.756;2023-05-28T05:33:52;9.63;;;5.77;;
2476;SDS011;1249;51.270;6.756;2023-05-28T05:36:17;5.20;;;4.67;;
2476;SDS011;1249;51.270;6.756;2023-05-28T05:38:43;10.23;;;5.87;;
2476;SDS011;1249;51.270;6.756;2023-05-28T05:41:10;6.00;;;4.70;;
2476;SDS011;1249;51.270;6.756;2023-05-28T05:43:36;9.33;;;5.20;;
2476;SDS011;1249;51.270;6.756;2023-05-28T05:46:02;5.87;;;4.70;;
2476;SDS011;1249;51.270;6.756;2023-05-28T05:48:27;6.70;;;4.90;;
2476;SDS011;1249;51.270;6.756;2023-05-28T05:50:53;8.93;;;4.53;;
2476;SDS011;1249;51.270;6.756;2023-05-28T05:53:20;12.60;;;6.07;;
2476;SDS011;1249;51.270;6.756;2023-05-28T05:55:46;8.63;;;6.07;;
2476;SDS011;1249;51.270;6.756;2023-05-28T05:58:12;13.90;;;6.87;;
2476;SDS011;1249;51.270;6.756;2023-05-28T06:00:39;7.67;;;6.53;;
2476;SDS011;1249;51.270;6.756;2023-05-28T06:03:05;9.10;;;7.70;;
2476;SDS011;1249;51.270;6.756;2023-05-28T06:05:31;7.77;;;6.50;;
2476;SDS011;1249;51.270;6.756;2023-05-28T06:08:00;11.20;;;7.30;;
2476;SDS011;1249;51.270;6.756;2023-05-28T06:10:28;10.13;;;7.10;;
2476;SDS011;1249;51.270;6.756;2023-05-28T06:12:54;11.07;;;7.03;;
2476;SDS011;1249;51.270;6.756;2023-05-28T06:15:20;9.40;;;7.20;;
2476;SDS011;1249;51.270;6.756;2023-05-28T06:17:46;9.43;;;7.37;;
2476;SDS011;1249;51.270;6.756;2023-05-28T06:20:12;8.10;;;6.60;;
2476;SDS011;1249;51.270;6.756;2023-05-28T06:22:38;9.30;;;6.27;;
2476;SDS011;1249;51.270;6.756;2023-05-28T06:25:05;7.57;;;6.40;;
2476;SDS011;1249;51.270;6.756;2023-05-28T06:27:31;11.20;;;6.70;;
2476;SDS011;1249;51.270;6.756;2023-05-28T06:29:57;7.33;;;6.67;;
2476;SDS011;1249;51.270;6.756;2023-05-28T06:32:23;7.97;;;6.30;;
2476;SDS011;1249;51.270;6.756;2023-05-28T06:34:48;7.20;;;6.50;;
2476;SDS011;1249;51.270;6.756;2023-05-28T06:37:14;6.23;;;5.63;;
2476;SDS011;1249;51.270;6.756;2023-05-28T06:39:39;8.43;;;6.40;;
2476;SDS011;1249;51.270;6.756;2023-05-28T06:42:05;8.27;;;6.60;;
2476;SDS011;1249;51.270;6.756;2023-05-28T06:44:32;11.17;;;6.37;;
2476;SDS011;1249;51.270;6.756;2023-05-28T06:46:58;7.03;;;5.87;;
2476;SDS011;1249;51.270;6.756;2023-05-28T06:49:23;7.83;;;6.40;;
2476;SDS011;1249;51.270;6.756;2023-05-28T06:51:49;10.23;;;5.80;;
2476;SDS011;1249;51.270;6.756;2023-05-28T06:54:15;7.60;;;5.87;;
2476;SDS011;1249;51.270;6.756;2023-05-28T06:56:40;11.00;;;5.23;;
2476;SDS011;1249;51.270;6.756;2023-05-28T06:59:06;9.60;;;5.93;;
2476;SDS011;1249;51.270;6.756;2023-05-28T07:01:31;9.40;;;5.83;;
2476;SDS011;1249;51.270;6.756;2023-05-28T07:03:57;7.23;;;5.27;;
2476;SDS011;1249;51.270;6.756;2023-05-28T07:06:22;6.00;;;5.20;;
2476;SDS011;1249;51.270;6.756;2023-05-28T07:08:48;9.20;;;5.60;;
2476;SDS011;1249;51.270;6.756;2023-05-28T07:11:14;6.33;;;4.87;;
2476;SDS011;1249;51.270;6.756;2023-05-28T07:13:39;11.07;;;5.57;;
2476;SDS011;1249;51.270;6.756;2023-05-28T07:16:06;7.00;;;5.70;;
2476;SDS011;1249;51.270;6.756;2023-05-28T07:18:32;5.57;;;4.70;;
2476;SDS011;1249;51.270;6.756;2023-05-28T07:20:58;6.20;;;5.60;;
2476;SDS011;1249;51.270;6.756;2023-05-28T07:23:24;5.57;;;5.00;;
2476;SDS011;1249;51.270;6.756;2023-05-28T07:25:49;4.83;;;4.20;;
2476;SDS011;1249;51.270;6.756;2023-05-28T07:28:15;6.33;;;4.43;;
2476;SDS011;1249;51.270;6.756;2023-05-28T07:30:41;6.83;;;3.63;;
2476;SDS011;1249;51.270;6.756;2023-05-28T07:33:07;5.00;;;4.40;;
2476;SDS011;1249;51.270;6.756;2023-05-28T07:35:33;6.33;;;4.00;;
2476;SDS011;1249;51.270;6.756;2023-05-28T07:37:58;5.00;;;4.47;;
2476;SDS011;1249;51.270;6.756;2023-05-28T07:40:25;5.67;;;4.23;;
2476;SDS011;1249;51.270;6.756;2023-05-28T07:42:51;4.40;;;4.00;;
2476;SDS011;1249;51.270;6.756;2023-05-28T07:45:16;4.87;;;3.90;;
2476;SDS011;1249;51.270;6.756;2023-05-28T07:47:42;7.03;;;4.93;;
2476;SDS011;1249;51.270;6.756;2023-05-28T07:50:07;6.53;;;5.03;;
2476;SDS011;1249;51.270;6.756;2023-05-28T07:52:34;5.93;;;4.40;;
2476;SDS011;1249;51.270;6.756;2023-05-28T07:55:01;8.87;;;4.60;;
2476;SDS011;1249;51.270;6.756;2023-05-28T07:57:28;4.90;;;3.73;;
2476;SDS011;1249;51.270;6.756;2023-05-28T07:59:54;9.37;;;4.40;;
2476;SDS011;1249;51.270;6.756;2023-05-28T08:02:20;8.63;;;4.80;;
2476;SDS011;1249;51.270;6.756;2023-05-28T08:04:47;6.00;;;4.37;;
2476;SDS011;1249;51.270;6.756;2023-05-28T08:07:13;6.10;;;4.30;;
2476;SDS011;1249;51.270;6.756;2023-05-28T08:09:39;5.87;;;4.50;;
2476;SDS011;1249;51.270;6.756;2023-05-28T08:12:06;6.10;;;5.30;;
2476;SDS011;1249;51.270;6.756;2023-05-28T08:14:33;6.10;;;4.70;;
2476;SDS011;1249;51.270;6.756;2023-05-28T08:16:58;5.03;;;4.50;;
2476;SDS011;1249;51.270;6.756;2023-05-28T08:19:24;4.77;;;4.20;;
2476;SDS011;1249;51.270;6.756;2023-05-28T08:21:50;4.87;;;4.47;;
2476;SDS011;1249;51.270;6.756;2023-05-28T08:24:16;9.70;;;5.13;;
2476;SDS011;1249;51.270;6.756;2023-05-28T08:26:42;4.07;;;3.50;;
2476;SDS011;1249;51.270;6.756;2023-05-28T08:29:08;7.57;;;4.27;;
2476;SDS011;1249;51.270;6.756;2023-05-28T08:31:33;7.50;;;4.70;;
2476;SDS011;1249;51.270;6.756;2023-05-28T08:33:59;8.13;;;4.33;;
2476;SDS011;1249;51.270;6.756;2023-05-28T08:36:25;9.33;;;5.47;;
2476;SDS011;1249;51.270;6.756;2023-05-28T08:38:50;8.30;;;5.00;;
2476;SDS011;1249;51.270;6.756;2023-05-28T08:41:16;6.57;;;3.90;;
2476;SDS011;1249;51.270;6.756;2023-05-28T08:43:42;6.80;;;4.50;;
2476;SDS011;1249;51.270;6.756;2023-05-28T08:46:07;7.57;;;4.17;;
2476;SDS011;1249;51.270;6.756;2023-05-28T08:48:33;6.27;;;4.13;;
2476;SDS011;1249;51.270;6.756;2023-05-28T08:51:00;7.10;;;4.53;;
2476;SDS011;1249;51.270;6.756;2023-05-28T08:53:26;3.83;;;3.53;;
2476;SDS011;1249;51.270;6.756;2023-05-28T08:55:56;6.60;;;4.40;;
2476;SDS011;1249;51.270;6.756;2023-05-28T08:58:22;5.17;;;4.13;;
2476;SDS011;1249;51.270;6.756;2023-05-28T09:00:48;7.20;;;3.60;;
2476;SDS011;1249;51.270;6.756;2023-05-28T09:03:14;6.13;;;4.03;;
2476;SDS011;1249;51.270;6.756;2023-05-28T09:05:40;6.90;;;4.23;;
2476;SDS011;1249;51.270;6.756;2023-05-28T09:08:06;5.33;;;3.77;;
2476;SDS011;1249;51.270;6.756;2023-05-28T09:10:32;5.60;;;3.80;;
2476;SDS011;1249;51.270;6.756;2023-05-28T09:13:02;4.20;;;3.50;;
2476;SDS011;1249;51.270;6.756;2023-05-28T09:15:29;7.10;;;3.50;;
2476;SDS011;1249;51.270;6.756;2023-05-28T09:17:55;6.67;;;3.70;;
2476;SDS011;1249;51.270;6.756;2023-05-28T09:20:23;6.00;;;3.77;;
2476;SDS011;1249;51.270;6.756;2023-05-28T09:23:02;4.77;;;3.70;;
2476;SDS011;1249;51.270;6.756;2023-05-28T09:25:30;6.00;;;3.67;;
2476;SDS011;1249;51.270;6.756;2023-05-28T09:28:03;5.10;;;3.60;;
2476;SDS011;1249;51.270;6.756;2023-05-28T09:30:29;4.57;;;3.10;;
2476;SDS011;1249;51.270;6.756;2023-05-28T09:33:07;6.53;;;3.90;;
2476;SDS011;1249;51.270;6.756;2023-05-28T09:35:34;5.07;;;4.60;;
2476;SDS011;1249;51.270;6.756;2023-05-28T09:38:04;8.50;;;3.70;;
2476;SDS011;1249;51.270;6.756;2023-05-28T09:40:40;5.20;;;3.63;;
2476;SDS011;1249;51.270;6.756;2023-05-28T09:43:10;5.27;;;3.80;;
2476;SDS011;1249;51.270;6.756;2023-05-28T09:45:36;4.53;;;3.73;;
2476;SDS011;1249;51.270;6.756;2023-05-28T09:48:02;4.60;;;3.40;;
2476;SDS011;1249;51.270;6.756;2023-05-28T09:50:28;6.83;;;4.10;;
2476;SDS011;1249;51.270;6.756;2023-05-28T09:52:55;6.73;;;4.00;;
2476;SDS011;1249;51.270;6.756;2023-05-28T09:55:25;3.50;;;3.20;;
2476;SDS011;1249;51.270;6.756;2023-05-28T09:58:11;5.63;;;3.50;;
2476;SDS011;1249;51.270;6.756;2023-05-28T10:00:40;5.93;;;4.10;;
2476;SDS011;1249;51.270;6.756;2023-05-28T10:03:24;5.77;;;3.40;;
2476;SDS011;1249;51.270;6.756;2023-05-28T10:06:09;5.70;;;4.20;;
2476;SDS011;1249;51.270;6.756;2023-05-28T10:08:36;5.27;;;3.23;;
2476;SDS011;1249;51.270;6.756;2023-05-28T10:11:04;6.90;;;4.67;;
2476;SDS011;1249;51.270;6.756;2023-05-28T10:13:32;5.83;;;3.50;;
2476;SDS011;1249;51.270;6.756;2023-05-28T10:15:58;4.03;;;3.63;;
2476;SDS011;1249;51.270;6.756;2023-05-28T10:18:25;5.30;;;3.80;;
2476;SDS011;1249;51.270;6.756;2023-05-28T10:20:51;5.30;;;4.20;;
2476;SDS011;1249;51.270;6.756;2023-05-28T10:23:17;3.60;;;3.07;;
2476;SDS011;1249;51.270;6.756;2023-05-28T10:25:45;5.87;;;4.00;;
2476;SDS011;1249;51.270;6.756;2023-05-28T10:28:13;5.70;;;4.53;;
2476;SDS011;1249;51.270;6.756;2023-05-28T10:30:39;4.60;;;3.27;;
2476;SDS011;1249;51.270;6.756;2023-05-28T10:33:08;5.47;;;3.40;;
2476;SDS011;1249;51.270;6.756;2023-05-28T10:35:50;6.07;;;4.00;;
2476;SDS011;1249;51.270;6.756;2023-05-28T10:38:20;6.00;;;4.20;;
2476;SDS011;1249;51.270;6.756;2023-05-28T10:40:46;5.60;;;3.87;;
2476;SDS011;1249;51.270;6.756;2023-05-28T10:46:10;4.17;;;3.40;;
2476;SDS011;1249;51.270;6.756;2023-05-28T10:51:42;6.77;;;4.40;;
2476;SDS011;1249;51.270;6.756;2023-05-28T10:54:16;4.07;;;3.03;;
2476;SDS011;1249;51.270;6.756;2023-05-28T10:59:45;5.37;;;3.97;;
2476;SDS011;1249;51.270;6.756;2023-05-28T11:02:15;4.30;;;3.47;;
2476;SDS011;1249;51.270;6.756;2023-05-28T11:04:43;5.77;;;3.40;;
2476;SDS011;1249;51.270;6.756;2023-05-28T11:07:09;3.40;;;3.10;;
2476;SDS011;1249;51.270;6.756;2023-05-28T11:09:36;4.80;;;3.20;;
2476;SDS011;1249;51.270;6.756;2023-05-28T11:12:02;3.97;;;3.57;;
2476;SDS011;1249;51.270;6.756;2023-05-28T11:14:29;4.53;;;3.33;;
2476;SDS011;1249;51.270;6.756;2023-05-28T11:16:59;5.20;;;3.60;;
2476;SDS011;1249;51.270;6.756;2023-05-28T11:19:24;3.80;;;3.20;;
2476;SDS011;1249;51.270;6.756;2023-05-28T11:21:51;3.97;;;3.17;;
2476;SDS011;1249;51.270;6.756;2023-05-28T11:24:17;4.00;;;3.27;;
2476;SDS011;1249;51.270;6.756;2023-05-28T11:26:42;3.00;;;2.80;;
2476;SDS011;1249;51.270;6.756;2023-05-28T11:29:08;3.97;;;3.30;;
2476;SDS011;1249;51.270;6.756;2023-05-28T11:31:41;4.93;;;3.57;;
2476;SDS011;1249;51.270;6.756;2023-05-28T11:34:07;5.03;;;3.57;;
2476;SDS011;1249;51.270;6.756;2023-05-28T11:36:37;6.07;;;4.37;;
2476;SDS011;1249;51.270;6.756;2023-05-28T11:39:04;4.87;;;3.30;;
2476;SDS011;1249;51.270;6.756;2023-05-28T11:41:30;4.67;;;2.80;;
2476;SDS011;1249;51.270;6.756;2023-05-28T11:43:56;4.80;;;2.87;;
2476;SDS011;1249;51.270;6.756;2023-05-28T11:46:21;4.60;;;3.43;;
2476;SDS011;1249;51.270;6.756;2023-05-28T11:48:47;3.97;;;3.00;;
2476;SDS011;1249;51.270;6.756;2023-05-28T11:51:13;3.47;;;2.87;;
2476;SDS011;1249;51.270;6.756;2023-05-28T11:53:42;5.20;;;3.97;;
2476;SDS011;1249;51.270;6.756;2023-05-28T11:56:09;3.83;;;2.60;;
2476;SDS011;1249;51.270;6.756;2023-05-28T11:58:36;3.53;;;3.17;;
2476;SDS011;1249;51.270;6.756;2023-05-28T12:01:05;5.33;;;3.60;;
2476;SDS011;1249;51.270;6.756;2023-05-28T12:03:31;4.80;;;3.50;;
2476;SDS011;1249;51.270;6.756;2023-05-28T12:05:56;3.87;;;3.10;;
2476;SDS011;1249;51.270;6.756;2023-05-28T12:08:22;4.50;;;3.77;;
2476;SDS011;1249;51.270;6.756;2023-05-28T12:10:48;6.30;;;3.60;;
2476;SDS011;1249;51.270;6.756;2023-05-28T12:13:14;3.87;;;3.10;;
2476;SDS011;1249;51.270;6.756;2023-05-28T12:15:41;3.60;;;3.20;;
2476;SDS011;1249;51.270;6.756;2023-05-28T12:18:06;3.90;;;3.23;;
2476;SDS011;1249;51.270;6.756;2023-05-28T12:20:34;4.60;;;3.27;;
2476;SDS011;1249;51.270;6.756;2023-05-28T12:23:07;3.70;;;3.20;;
2476;SDS011;1249;51.270;6.756;2023-05-28T12:28:12;5.13;;;2.80;;
2476;SDS011;1249;51.270;6.756;2023-05-28T12:30:41;5.00;;;3.17;;
2476;SDS011;1249;51.270;6.756;2023-05-28T12:33:11;4.13;;;2.90;;
2476;SDS011;1249;51.270;6.756;2023-05-28T12:35:37;4.30;;;3.00;;
2476;SDS011;1249;51.270;6.756;2023-05-28T12:38:02;4.57;;;3.17;;
2476;SDS011;1249;51.270;6.756;2023-05-28T12:40:28;4.60;;;3.60;;
2476;SDS011;1249;51.270;6.756;2023-05-28T12:42:54;3.33;;;3.03;;
2476;SDS011;1249;51.270;6.756;2023-05-28T12:45:20;4.30;;;3.20;;
2476;SDS011;1249;51.270;6.756;2023-05-28T12:47:46;3.43;;;3.00;;
2476;SDS011;1249;51.270;6.756;2023-05-28T12:50:11;4.30;;;3.30;;
2476;SDS011;1249;51.270;6.756;2023-05-28T12:52:37;4.03;;;3.20;;
2476;SDS011;1249;51.270;6.756;2023-05-28T12:55:02;6.40;;;3.50;;
2476;SDS011;1249;51.270;6.756;2023-05-28T12:57:28;4.63;;;3.40;;
2476;SDS011;1249;51.270;6.756;2023-05-28T12:59:55;3.17;;;2.87;;
2476;SDS011;1249;51.270;6.756;2023-05-28T13:02:21;3.70;;;2.93;;
2476;SDS011;1249;51.270;6.756;2023-05-28T13:04:46;4.30;;;3.10;;
2476;SDS011;1249;51.270;6.756;2023-05-28T13:07:12;3.80;;;3.10;;
2476;SDS011;1249;51.270;6.756;2023-05-28T13:09:38;4.00;;;3.30;;
2476;SDS011;1249;51.270;6.756;2023-05-28T13:12:03;3.50;;;3.20;;
2476;SDS011;1249;51.270;6.756;2023-05-28T13:14:29;3.50;;;2.83;;
2476;SDS011;1249;51.270;6.756;2023-05-28T13:16:58;6.63;;;3.40;;
2476;SDS011;1249;51.270;6.756;2023-05-28T13:19:24;5.10;;;3.30;;
2476;SDS011;1249;51.270;6.756;2023-05-28T13:21:50;4.23;;;3.53;;
2476;SDS011;1249;51.270;6.756;2023-05-28T13:24:16;10.37;;;4.03;;
2476;SDS011;1249;51.270;6.756;2023-05-28T13:26:42;3.83;;;2.90;;
2476;SDS011;1249;51.270;6.756;2023-05-28T13:29:08;3.53;;;2.80;;
2476;SDS011;1249;51.270;6.756;2023-05-28T13:31:33;3.70;;;2.90;;
2476;SDS011;1249;51.270;6.756;2023-05-28T13:34:00;4.43;;;2.70;;
2476;SDS011;1249;51.270;6.756;2023-05-28T13:36:26;3.90;;;3.50;;
2476;SDS011;1249;51.270;6.756;2023-05-28T13:38:51;4.20;;;3.40;;
2476;SDS011;1249;51.270;6.756;2023-05-28T13:41:19;3.33;;;3.03;;
2476;SDS011;1249;51.270;6.756;2023-05-28T13:43:45;4.30;;;3.37;;
2476;SDS011;1249;51.270;6.756;2023-05-28T13:46:11;4.10;;;3.30;;
2476;SDS011;1249;51.270;6.756;2023-05-28T13:48:36;3.53;;;3.23;;
2476;SDS011;1249;51.270;6.756;2023-05-28T13:51:02;4.30;;;3.30;;
2476;SDS011;1249;51.270;6.756;2023-05-28T13:53:28;5.03;;;2.80;;
2476;SDS011;1249;51.270;6.756;2023-05-28T13:55:55;4.50;;;3.67;;
2476;SDS011;1249;51.270;6.756;2023-05-28T13:58:20;4.90;;;2.93;;
2476;SDS011;1249;51.270;6.756;2023-05-28T14:00:47;5.23;;;3.17;;
2476;SDS011;1249;51.270;6.756;2023-05-28T14:03:12;3.63;;;3.13;;
2476;SDS011;1249;51.270;6.756;2023-05-28T14:05:39;3.53;;;3.20;;
2476;SDS011;1249;51.270;6.756;2023-05-28T14:08:05;3.83;;;3.27;;
2476;SDS011;1249;51.270;6.756;2023-05-28T14:10:31;4.23;;;2.90;;
2476;SDS011;1249;51.270;6.756;2023-05-28T14:12:57;4.03;;;3.03;;
2476;SDS011;1249;51.270;6.756;2023-05-28T14:15:23;5.43;;;2.97;;
2476;SDS011;1249;51.270;6.756;2023-05-28T14:17:49;7.40;;;3.20;;
2476;SDS011;1249;51.270;6.756;2023-05-28T14:20:15;3.50;;;3.20;;
2476;SDS011;1249;51.270;6.756;2023-05-28T14:22:41;3.60;;;2.87;;
2476;SDS011;1249;51.270;6.756;2023-05-28T14:25:09;5.03;;;3.57;;
2476;SDS011;1249;51.270;6.756;2023-05-28T14:27:35;3.90;;;3.07;;
2476;SDS011;1249;51.270;6.756;2023-05-28T14:30:00;3.70;;;3.20;;
2476;SDS011;1249;51.270;6.756;2023-05-28T14:32:26;4.53;;;3.20;;
2476;SDS011;1249;51.270;6.756;2023-05-28T14:34:52;4.43;;;3.00;;
2476;SDS011;1249;51.270;6.756;2023-05-28T14:37:17;4.23;;;3.80;;
2476;SDS011;1249;51.270;6.756;2023-05-28T14:39:44;3.73;;;3.20;;
2476;SDS011;1249;51.270;6.756;2023-05-28T14:42:09;3.17;;;2.87;;
2476;SDS011;1249;51.270;6.756;2023-05-28T14:44:35;4.53;;;3.40;;
2476;SDS011;1249;51.270;6.756;2023-05-28T14:47:01;3.27;;;2.97;;
2476;SDS011;1249;51.270;6.756;2023-05-28T14:49:26;3.17;;;2.87;;
2476;SDS011;1249;51.270;6.756;2023-05-28T14:51:55;4.13;;;3.03;;
2476;SDS011;1249;51.270;6.756;2023-05-28T14:54:22;4.60;;;2.90;;
2476;SDS011;1249;51.270;6.756;2023-05-28T14:56:48;3.70;;;2.90;;
2476;SDS011;1249;51.270;6.756;2023-05-28T14:59:13;4.57;;;2.80;;
2476;SDS011;1249;51.270;6.756;2023-05-28T15:01:40;6.60;;;4.13;;
2476;SDS011;1249;51.270;6.756;2023-05-28T15:04:05;3.17;;;2.87;;
2476;SDS011;1249;51.270;6.756;2023-05-28T15:06:31;2.67;;;2.47;;
2476;SDS011;1249;51.270;6.756;2023-05-28T15:08:57;2.80;;;2.60;;
2476;SDS011;1249;51.270;6.756;2023-05-28T15:11:23;3.97;;;2.80;;
2476;SDS011;1249;51.270;6.756;2023-05-28T15:13:50;4.10;;;3.13;;
2476;SDS011;1249;51.270;6.756;2023-05-28T15:16:17;3.77;;;2.93;;
2476;SDS011;1249;51.270;6.756;2023-05-28T15:18:42;4.00;;;3.03;;
2476;SDS011;1249;51.270;6.756;2023-05-28T15:21:08;3.47;;;2.87;;
2476;SDS011;1249;51.270;6.756;2023-05-28T15:23:35;3.70;;;3.37;;